sensor_id;sensor_type;location;lat;lon;timestamp;temperature;humidity
33803;DHT22;20110;53.120;5.786;2022-07-22T00:00:32;14.20;99.90
33803;DHT22;20110;53.120;5.786;2022-07-22T00:02:58;14.20;99.90
33803;DHT22;20110;53.120;5.786;2022-07-22T00:05:24;14.20;99.90
33803;DHT22;20110;53.120;5.786;2022-07-22T00:07:50;14.20;99.90
33803;DHT22;20110;53.120;5.786;2022-07-22T00:10:15;14.20;99.90
33803;DHT22;20110;53.120;5.786;2022-07-22T00:12:41;14.20;99.90
33803;DHT22;20110;53.120;5.786;2022-07-22T00:15:08;14.20;99.90
33803;DHT22;20110;53.120;5.786;2022-07-22T00:17:34;14.20;99.90
33803;DHT22;20110;53.120;5.786;2022-07-22T00:20:04;14.20;99.90
33803;DHT22;20110;53.120;5.786;2022-07-22T00:22:31;14.20;99.90
33803;DHT22;20110;53.120;5.786;2022-07-22T00:24:56;14.30;99.90
33803;DHT22;20110;53.120;5.786;2022-07-22T00:27:22;14.30;99.90
33803;DHT22;20110;53.120;5.786;2022-07-22T00:29:48;14.30;99.90
33803;DHT22;20110;53.120;5.786;2022-07-22T00:32:13;14.30;99.90
33803;DHT22;20110;53.120;5.786;2022-07-22T00:34:39;14.30;99.90
33803;DHT22;20110;53.120;5.786;2022-07-22T00:37:05;14.30;99.90
33803;DHT22;20110;53.120;5.786;2022-07-22T00:39:32;14.20;99.90
33803;DHT22;20110;53.120;5.786;2022-07-22T00:41:59;14.20;99.90
33803;DHT22;20110;53.120;5.786;2022-07-22T00:44:25;14.20;99.90
33803;DHT22;20110;53.120;5.786;2022-07-22T00:46:51;14.20;99.90
33803;DHT22;20110;53.120;5.786;2022-07-22T00:49:17;14.20;99.90
33803;DHT22;20110;53.120;5.786;2022-07-22T00:51:42;14.30;99.90
33803;DHT22;20110;53.120;5.786;2022-07-22T00:54:09;14.20;99.90
33803;DHT22;20110;53.120;5.786;2022-07-22T00:56:35;14.20;99.90
33803;DHT22;20110;53.120;5.786;2022-07-22T00:59:05;14.20;99.90
33803;DHT22;20110;53.120;5.786;2022-07-22T01:01:32;14.20;99.90
33803;DHT22;20110;53.120;5.786;2022-07-22T01:03:58;14.20;99.90
33803;DHT22;20110;53.120;5.786;2022-07-22T01:06:24;14.20;99.90
33803;DHT22;20110;53.120;5.786;2022-07-22T01:08:50;14.20;99.90
33803;DHT22;20110;53.120;5.786;2022-07-22T01:11:18;14.20;99.90
33803;DHT22;20110;53.120;5.786;2022-07-22T01:13:46;14.20;99.90
33803;DHT22;20110;53.120;5.786;2022-07-22T01:16:15;14.20;99.90
33803;DHT22;20110;53.120;5.786;2022-07-22T01:18:42;14.10;99.90
33803;DHT22;20110;53.120;5.786;2022-07-22T01:21:09;14.20;99.90
33803;DHT22;20110;53.120;5.786;2022-07-22T01:23:37;14.20;99.90
33803;DHT22;20110;53.120;5.786;2022-07-22T01:26:05;14.20;99.90
33803;DHT22;20110;53.120;5.786;2022-07-22T01:28:31;14.20;99.90
33803;DHT22;20110;53.120;5.786;2022-07-22T01:30:58;14.20;99.90
33803;DHT22;20110;53.120;5.786;2022-07-22T01:33:24;14.20;99.90
33803;DHT22;20110;53.120;5.786;2022-07-22T01:35:51;14.20;99.90
33803;DHT22;20110;53.120;5.786;2022-07-22T01:38:17;14.20;99.90
33803;DHT22;20110;53.120;5.786;2022-07-22T01:40:44;14.20;99.90
33803;DHT22;20110;53.120;5.786;2022-07-22T01:43:11;14.20;99.90
33803;DHT22;20110;53.120;5.786;2022-07-22T01:45:37;14.20;99.90
33803;DHT22;20110;53.120;5.786;2022-07-22T01:48:03;14.20;99.90
33803;DHT22;20110;53.120;5.786;2022-07-22T01:50:29;14.20;99.90
33803;DHT22;20110;53.120;5.786;2022-07-22T01:52:55;14.20;99.90
33803;DHT22;20110;53.120;5.786;2022-07-22T01:55:21;14.20;99.90
33803;DHT22;20110;53.120;5.786;2022-07-22T01:57:47;14.20;99.90
33803;DHT22;20110;53.120;5.786;2022-07-22T02:00:13;14.20;99.90
33803;DHT22;20110;53.120;5.786;2022-07-22T02:02:39;14.20;99.90
33803;DHT22;20110;53.120;5.786;2022-07-22T02:05:06;14.20;99.90
33803;DHT22;20110;53.120;5.786;2022-07-22T02:07:32;14.20;99.90
33803;DHT22;20110;53.120;5.786;2022-07-22T02:09:58;14.20;99.90
33803;DHT22;20110;53.120;5.786;2022-07-22T02:12:24;14.10;99.90
33803;DHT22;20110;53.120;5.786;2022-07-22T02:14:50;14.20;99.90
33803;DHT22;20110;53.120;5.786;2022-07-22T02:17:16;14.20;99.90
33803;DHT22;20110;53.120;5.786;2022-07-22T02:19:42;14.10;99.90
33803;DHT22;20110;53.120;5.786;2022-07-22T02:22:08;14.10;99.90
33803;DHT22;20110;53.120;5.786;2022-07-22T02:24:34;14.10;99.90
33803;DHT22;20110;53.120;5.786;2022-07-22T02:27:00;14.10;99.90
33803;DHT22;20110;53.120;5.786;2022-07-22T02:29:26;14.10;99.90
33803;DHT22;20110;53.120;5.786;2022-07-22T02:31:52;14.10;99.90
33803;DHT22;20110;53.120;5.786;2022-07-22T02:34:18;14.10;99.90
33803;DHT22;20110;53.120;5.786;2022-07-22T02:36:44;14.10;99.90
33803;DHT22;20110;53.120;5.786;2022-07-22T02:39:10;14.00;99.90
33803;DHT22;20110;53.120;5.786;2022-07-22T02:41:35;14.10;99.90
33803;DHT22;20110;53.120;5.786;2022-07-22T02:44:01;14.00;99.90
33803;DHT22;20110;53.120;5.786;2022-07-22T02:46:27;14.00;99.90
33803;DHT22;20110;53.120;5.786;2022-07-22T02:48:57;14.00;99.90
33803;DHT22;20110;53.120;5.786;2022-07-22T02:51:23;14.00;99.90
33803;DHT22;20110;53.120;5.786;2022-07-22T02:53:49;14.00;99.90
33803;DHT22;20110;53.120;5.786;2022-07-22T02:56:15;13.90;99.90
33803;DHT22;20110;53.120;5.786;2022-07-22T02:58:41;13.80;99.90
33803;DHT22;20110;53.120;5.786;2022-07-22T03:01:07;13.80;99.90
33803;DHT22;20110;53.120;5.786;2022-07-22T03:03:34;13.70;99.90
33803;DHT22;20110;53.120;5.786;2022-07-22T03:05:59;13.70;99.90
33803;DHT22;20110;53.120;5.786;2022-07-22T03:08:26;13.80;99.90
33803;DHT22;20110;53.120;5.786;2022-07-22T03:10:52;13.80;99.90
33803;DHT22;20110;53.120;5.786;2022-07-22T03:13:18;13.80;99.90
33803;DHT22;20110;53.120;5.786;2022-07-22T03:15:44;13.90;99.90
33803;DHT22;20110;53.120;5.786;2022-07-22T03:18:09;13.80;99.90
33803;DHT22;20110;53.120;5.786;2022-07-22T03:20:35;13.80;99.90
33803;DHT22;20110;53.120;5.786;2022-07-22T03:23:02;13.80;99.90
33803;DHT22;20110;53.120;5.786;2022-07-22T03:25:28;13.80;99.90
33803;DHT22;20110;53.120;5.786;2022-07-22T03:27:56;13.80;99.90
33803;DHT22;20110;53.120;5.786;2022-07-22T03:30:22;13.90;99.90
33803;DHT22;20110;53.120;5.786;2022-07-22T03:32:49;13.80;99.90
33803;DHT22;20110;53.120;5.786;2022-07-22T03:35:15;13.80;99.90
33803;DHT22;20110;53.120;5.786;2022-07-22T03:37:42;13.80;99.90
33803;DHT22;20110;53.120;5.786;2022-07-22T03:40:09;13.80;99.90
33803;DHT22;20110;53.120;5.786;2022-07-22T03:42:35;13.80;99.90
33803;DHT22;20110;53.120;5.786;2022-07-22T03:45:01;13.80;99.90
33803;DHT22;20110;53.120;5.786;2022-07-22T03:47:27;13.80;99.90
33803;DHT22;20110;53.120;5.786;2022-07-22T03:49:53;13.80;99.90
33803;DHT22;20110;53.120;5.786;2022-07-22T03:52:19;13.80;99.90
33803;DHT22;20110;53.120;5.786;2022-07-22T03:54:44;13.80;99.90
33803;DHT22;20110;53.120;5.786;2022-07-22T03:57:10;13.90;99.90
33803;DHT22;20110;53.120;5.786;2022-07-22T03:59:37;13.90;99.90
33803;DHT22;20110;53.120;5.786;2022-07-22T04:02:03;13.90;99.90
33803;DHT22;20110;53.120;5.786;2022-07-22T04:04:29;13.90;99.90
33803;DHT22;20110;53.120;5.786;2022-07-22T04:06:56;13.90;99.90
33803;DHT22;20110;53.120;5.786;2022-07-22T04:09:22;14.00;99.90
33803;DHT22;20110;53.120;5.786;2022-07-22T04:11:48;14.00;99.90
33803;DHT22;20110;53.120;5.786;2022-07-22T04:14:16;14.00;99.90
33803;DHT22;20110;53.120;5.786;2022-07-22T04:16:42;14.00;99.90
33803;DHT22;20110;53.120;5.786;2022-07-22T04:19:11;13.90;99.90
33803;DHT22;20110;53.120;5.786;2022-07-22T04:21:37;14.00;99.90
33803;DHT22;20110;53.120;5.786;2022-07-22T04:24:04;14.00;99.90
33803;DHT22;20110;53.120;5.786;2022-07-22T04:26:30;14.00;99.90
33803;DHT22;20110;53.120;5.786;2022-07-22T04:28:56;14.10;99.90
33803;DHT22;20110;53.120;5.786;2022-07-22T04:31:22;14.10;99.90
33803;DHT22;20110;53.120;5.786;2022-07-22T04:33:48;14.10;99.90
33803;DHT22;20110;53.120;5.786;2022-07-22T04:36:14;14.10;99.90
33803;DHT22;20110;53.120;5.786;2022-07-22T04:38:40;14.20;99.90
33803;DHT22;20110;53.120;5.786;2022-07-22T04:41:05;14.20;99.90
33803;DHT22;20110;53.120;5.786;2022-07-22T04:43:31;14.20;99.90
33803;DHT22;20110;53.120;5.786;2022-07-22T04:45:58;14.20;99.90
33803;DHT22;20110;53.120;5.786;2022-07-22T04:48:23;14.30;99.90
33803;DHT22;20110;53.120;5.786;2022-07-22T04:50:49;14.30;99.90
33803;DHT22;20110;53.120;5.786;2022-07-22T04:53:15;14.30;99.90
33803;DHT22;20110;53.120;5.786;2022-07-22T04:55:41;14.30;99.90
33803;DHT22;20110;53.120;5.786;2022-07-22T04:58:07;14.30;99.90
33803;DHT22;20110;53.120;5.786;2022-07-22T05:00:33;14.40;99.90
33803;DHT22;20110;53.120;5.786;2022-07-22T05:02:59;14.50;99.90
33803;DHT22;20110;53.120;5.786;2022-07-22T05:05:25;14.50;99.90
33803;DHT22;20110;53.120;5.786;2022-07-22T05:07:51;14.60;99.90
33803;DHT22;20110;53.120;5.786;2022-07-22T05:10:17;14.60;99.90
33803;DHT22;20110;53.120;5.786;2022-07-22T05:12:42;14.60;99.90
33803;DHT22;20110;53.120;5.786;2022-07-22T05:15:08;14.60;99.90
33803;DHT22;20110;53.120;5.786;2022-07-22T05:17:35;14.70;99.90
33803;DHT22;20110;53.120;5.786;2022-07-22T05:20:04;14.70;99.90
33803;DHT22;20110;53.120;5.786;2022-07-22T05:22:30;14.80;99.90
33803;DHT22;20110;53.120;5.786;2022-07-22T05:24:56;14.80;99.90
33803;DHT22;20110;53.120;5.786;2022-07-22T05:27:22;14.90;99.90
33803;DHT22;20110;53.120;5.786;2022-07-22T05:29:48;15.00;99.90
33803;DHT22;20110;53.120;5.786;2022-07-22T05:32:14;15.10;99.90
33803;DHT22;20110;53.120;5.786;2022-07-22T05:34:40;15.30;99.90
33803;DHT22;20110;53.120;5.786;2022-07-22T05:37:06;15.30;99.90
33803;DHT22;20110;53.120;5.786;2022-07-22T05:39:32;15.30;99.90
33803;DHT22;20110;53.120;5.786;2022-07-22T05:41:58;15.40;99.90
33803;DHT22;20110;53.120;5.786;2022-07-22T05:44:24;15.50;99.90
33803;DHT22;20110;53.120;5.786;2022-07-22T05:46:50;15.60;99.90
33803;DHT22;20110;53.120;5.786;2022-07-22T05:49:16;15.70;99.90
33803;DHT22;20110;53.120;5.786;2022-07-22T05:51:42;15.60;99.90
33803;DHT22;20110;53.120;5.786;2022-07-22T05:54:08;15.80;99.90
33803;DHT22;20110;53.120;5.786;2022-07-22T05:56:33;15.80;99.90
33803;DHT22;20110;53.120;5.786;2022-07-22T05:58:59;15.80;99.90
33803;DHT22;20110;53.120;5.786;2022-07-22T06:01:26;15.90;99.90
33803;DHT22;20110;53.120;5.786;2022-07-22T06:03:52;16.00;99.90
33803;DHT22;20110;53.120;5.786;2022-07-22T06:06:18;16.10;99.90
33803;DHT22;20110;53.120;5.786;2022-07-22T06:08:44;16.30;99.90
33803;DHT22;20110;53.120;5.786;2022-07-22T06:11:10;16.20;99.90
33803;DHT22;20110;53.120;5.786;2022-07-22T06:13:37;16.20;99.90
33803;DHT22;20110;53.120;5.786;2022-07-22T06:16:03;16.20;99.90
33803;DHT22;20110;53.120;5.786;2022-07-22T06:18:30;16.30;99.90
33803;DHT22;20110;53.120;5.786;2022-07-22T06:20:55;16.30;99.90
33803;DHT22;20110;53.120;5.786;2022-07-22T06:23:23;16.20;99.90
33803;DHT22;20110;53.120;5.786;2022-07-22T06:25:49;16.10;99.90
33803;DHT22;20110;53.120;5.786;2022-07-22T06:28:15;16.00;99.90
33803;DHT22;20110;53.120;5.786;2022-07-22T06:30:41;16.00;99.90
33803;DHT22;20110;53.120;5.786;2022-07-22T06:33:07;16.00;99.90
33803;DHT22;20110;53.120;5.786;2022-07-22T06:35:34;16.10;99.90
33803;DHT22;20110;53.120;5.786;2022-07-22T06:38:00;16.20;99.90
33803;DHT22;20110;53.120;5.786;2022-07-22T06:40:26;16.30;99.90
33803;DHT22;20110;53.120;5.786;2022-07-22T06:42:52;16.60;99.90
33803;DHT22;20110;53.120;5.786;2022-07-22T06:45:17;16.70;99.90
33803;DHT22;20110;53.120;5.786;2022-07-22T06:47:43;16.80;99.90
33803;DHT22;20110;53.120;5.786;2022-07-22T06:50:09;17.00;99.90
33803;DHT22;20110;53.120;5.786;2022-07-22T06:52:39;17.00;99.90
33803;DHT22;20110;53.120;5.786;2022-07-22T06:55:06;17.00;99.90
33803;DHT22;20110;53.120;5.786;2022-07-22T06:57:33;17.10;99.90
33803;DHT22;20110;53.120;5.786;2022-07-22T06:59:59;17.10;99.90
33803;DHT22;20110;53.120;5.786;2022-07-22T07:02:25;17.20;99.90
33803;DHT22;20110;53.120;5.786;2022-07-22T07:04:51;17.20;99.90
33803;DHT22;20110;53.120;5.786;2022-07-22T07:07:17;17.30;99.90
33803;DHT22;20110;53.120;5.786;2022-07-22T07:09:42;17.50;99.90
33803;DHT22;20110;53.120;5.786;2022-07-22T07:12:08;17.50;99.90
33803;DHT22;20110;53.120;5.786;2022-07-22T07:14:34;17.60;99.90
33803;DHT22;20110;53.120;5.786;2022-07-22T07:17:00;17.40;99.90
33803;DHT22;20110;53.120;5.786;2022-07-22T07:19:26;17.30;99.90
33803;DHT22;20110;53.120;5.786;2022-07-22T07:21:51;17.40;99.90
33803;DHT22;20110;53.120;5.786;2022-07-22T07:24:17;17.50;99.90
33803;DHT22;20110;53.120;5.786;2022-07-22T07:26:43;17.30;99.90
33803;DHT22;20110;53.120;5.786;2022-07-22T07:29:09;17.30;99.90
33803;DHT22;20110;53.120;5.786;2022-07-22T07:31:34;17.30;99.90
33803;DHT22;20110;53.120;5.786;2022-07-22T07:34:00;17.20;99.90
33803;DHT22;20110;53.120;5.786;2022-07-22T07:36:26;17.00;99.90
33803;DHT22;20110;53.120;5.786;2022-07-22T07:38:52;17.00;99.90
33803;DHT22;20110;53.120;5.786;2022-07-22T07:41:18;17.00;99.90
33803;DHT22;20110;53.120;5.786;2022-07-22T07:43:43;17.00;99.90
33803;DHT22;20110;53.120;5.786;2022-07-22T07:46:10;17.00;99.90
33803;DHT22;20110;53.120;5.786;2022-07-22T07:48:36;16.90;99.90
33803;DHT22;20110;53.120;5.786;2022-07-22T07:51:01;16.70;99.90
33803;DHT22;20110;53.120;5.786;2022-07-22T07:53:27;16.80;99.90
33803;DHT22;20110;53.120;5.786;2022-07-22T07:55:53;16.80;99.90
33803;DHT22;20110;53.120;5.786;2022-07-22T07:58:19;17.00;99.90
33803;DHT22;20110;53.120;5.786;2022-07-22T08:00:45;17.10;99.90
33803;DHT22;20110;53.120;5.786;2022-07-22T08:03:11;17.30;99.90
33803;DHT22;20110;53.120;5.786;2022-07-22T08:05:38;17.30;99.90
33803;DHT22;20110;53.120;5.786;2022-07-22T08:08:06;17.30;99.90
33803;DHT22;20110;53.120;5.786;2022-07-22T08:10:33;17.40;99.90
33803;DHT22;20110;53.120;5.786;2022-07-22T08:12:58;17.60;99.90
33803;DHT22;20110;53.120;5.786;2022-07-22T08:15:26;17.80;99.90
33803;DHT22;20110;53.120;5.786;2022-07-22T08:17:53;18.00;99.90
33803;DHT22;20110;53.120;5.786;2022-07-22T08:20:20;18.30;99.90
33803;DHT22;20110;53.120;5.786;2022-07-22T08:22:46;18.50;99.90
33803;DHT22;20110;53.120;5.786;2022-07-22T08:25:12;18.50;99.90
33803;DHT22;20110;53.120;5.786;2022-07-22T08:27:38;18.50;99.90
33803;DHT22;20110;53.120;5.786;2022-07-22T08:30:05;18.50;99.90
33803;DHT22;20110;53.120;5.786;2022-07-22T08:32:32;18.40;99.90
33803;DHT22;20110;53.120;5.786;2022-07-22T08:34:59;18.50;99.90
33803;DHT22;20110;53.120;5.786;2022-07-22T08:37:25;18.60;99.90
33803;DHT22;20110;53.120;5.786;2022-07-22T08:39:51;18.60;99.90
33803;DHT22;20110;53.120;5.786;2022-07-22T08:42:23;18.70;99.90
33803;DHT22;20110;53.120;5.786;2022-07-22T08:44:50;18.70;99.90
33803;DHT22;20110;53.120;5.786;2022-07-22T08:47:22;18.60;99.90
33803;DHT22;20110;53.120;5.786;2022-07-22T08:49:49;18.50;99.90
33803;DHT22;20110;53.120;5.786;2022-07-22T08:52:15;18.50;99.90
33803;DHT22;20110;53.120;5.786;2022-07-22T08:54:41;18.50;99.90
33803;DHT22;20110;53.120;5.786;2022-07-22T08:57:07;18.50;99.90
33803;DHT22;20110;53.120;5.786;2022-07-22T08:59:33;18.70;99.90
33803;DHT22;20110;53.120;5.786;2022-07-22T09:02:10;18.90;99.90
33803;DHT22;20110;53.120;5.786;2022-07-22T09:04:59;18.70;99.90
33803;DHT22;20110;53.120;5.786;2022-07-22T09:07:30;18.70;99.90
33803;DHT22;20110;53.120;5.786;2022-07-22T09:10:07;18.60;99.90
33803;DHT22;20110;53.120;5.786;2022-07-22T09:12:58;18.50;99.90
33803;DHT22;20110;53.120;5.786;2022-07-22T09:15:34;18.40;99.90
33803;DHT22;20110;53.120;5.786;2022-07-22T09:18:05;18.30;99.90
33803;DHT22;20110;53.120;5.786;2022-07-22T09:20:33;18.40;99.90
33803;DHT22;20110;53.120;5.786;2022-07-22T09:23:01;18.40;99.90
33803;DHT22;20110;53.120;5.786;2022-07-22T09:25:35;18.40;99.90
33803;DHT22;20110;53.120;5.786;2022-07-22T09:30:33;18.20;99.90
33803;DHT22;20110;53.120;5.786;2022-07-22T09:33:00;18.20;99.90
33803;DHT22;20110;53.120;5.786;2022-07-22T09:35:27;18.50;99.90
33803;DHT22;20110;53.120;5.786;2022-07-22T09:37:56;18.70;99.90
33803;DHT22;20110;53.120;5.786;2022-07-22T09:40:26;18.60;99.90
33803;DHT22;20110;53.120;5.786;2022-07-22T09:43:01;18.70;99.90
33803;DHT22;20110;53.120;5.786;2022-07-22T09:45:30;18.90;99.90
33803;DHT22;20110;53.120;5.786;2022-07-22T09:47:58;19.20;99.90
33803;DHT22;20110;53.120;5.786;2022-07-22T09:50:27;19.40;99.90
33803;DHT22;20110;53.120;5.786;2022-07-22T09:52:56;19.40;99.90
33803;DHT22;20110;53.120;5.786;2022-07-22T09:55:25;19.50;99.90
33803;DHT22;20110;53.120;5.786;2022-07-22T09:57:53;19.80;99.90
33803;DHT22;20110;53.120;5.786;2022-07-22T10:00:23;19.90;99.90
33803;DHT22;20110;53.120;5.786;2022-07-22T10:02:52;19.90;99.90
33803;DHT22;20110;53.120;5.786;2022-07-22T10:05:22;19.70;99.90
33803;DHT22;20110;53.120;5.786;2022-07-22T10:07:51;19.60;99.90
33803;DHT22;20110;53.120;5.786;2022-07-22T10:10:20;19.70;99.90
33803;DHT22;20110;53.120;5.786;2022-07-22T10:12:53;20.00;99.90
33803;DHT22;20110;53.120;5.786;2022-07-22T10:15:23;20.00;99.90
33803;DHT22;20110;53.120;5.786;2022-07-22T10:17:51;19.70;99.90
33803;DHT22;20110;53.120;5.786;2022-07-22T10:20:24;19.90;99.90
33803;DHT22;20110;53.120;5.786;2022-07-22T10:23:05;20.00;99.90
33803;DHT22;20110;53.120;5.786;2022-07-22T10:30:51;20.70;99.90
33803;DHT22;20110;53.120;5.786;2022-07-22T10:33:20;20.70;99.90
33803;DHT22;20110;53.120;5.786;2022-07-22T10:36:02;20.40;99.90
33803;DHT22;20110;53.120;5.786;2022-07-22T10:38:31;20.60;99.90
33803;DHT22;20110;53.120;5.786;2022-07-22T10:41:02;20.70;99.90
33803;DHT22;20110;53.120;5.786;2022-07-22T10:43:31;20.50;99.90
33803;DHT22;20110;53.120;5.786;2022-07-22T10:46:11;20.20;99.90
33803;DHT22;20110;53.120;5.786;2022-07-22T10:51:13;20.30;99.90
33803;DHT22;20110;53.120;5.786;2022-07-22T10:56:29;20.50;99.90
33803;DHT22;20110;53.120;5.786;2022-07-22T10:59:10;20.40;99.90
33803;DHT22;20110;53.120;5.786;2022-07-22T11:01:39;20.30;99.90
33803;DHT22;20110;53.120;5.786;2022-07-22T11:04:13;20.20;99.90
33803;DHT22;20110;53.120;5.786;2022-07-22T11:06:44;20.40;99.90
33803;DHT22;20110;53.120;5.786;2022-07-22T11:09:13;20.40;99.90
33803;DHT22;20110;53.120;5.786;2022-07-22T11:11:41;20.40;99.90
33803;DHT22;20110;53.120;5.786;2022-07-22T11:14:28;20.30;99.90
33803;DHT22;20110;53.120;5.786;2022-07-22T11:17:04;20.40;99.90
33803;DHT22;20110;53.120;5.786;2022-07-22T11:19:32;20.50;99.90
33803;DHT22;20110;53.120;5.786;2022-07-22T11:24:33;20.30;99.90
33803;DHT22;20110;53.120;5.786;2022-07-22T11:27:00;20.50;99.90
33803;DHT22;20110;53.120;5.786;2022-07-22T11:29:32;20.60;99.90
33803;DHT22;20110;53.120;5.786;2022-07-22T11:32:01;20.10;99.90
33803;DHT22;20110;53.120;5.786;2022-07-22T11:34:28;19.80;99.90
33803;DHT22;20110;53.120;5.786;2022-07-22T11:36:55;19.90;99.90
33803;DHT22;20110;53.120;5.786;2022-07-22T11:39:28;20.10;99.90
33803;DHT22;20110;53.120;5.786;2022-07-22T11:41:56;20.20;99.90
33803;DHT22;20110;53.120;5.786;2022-07-22T11:44:35;20.40;99.90
33803;DHT22;20110;53.120;5.786;2022-07-22T11:47:03;19.90;99.90
33803;DHT22;20110;53.120;5.786;2022-07-22T11:49:32;20.00;99.90
33803;DHT22;20110;53.120;5.786;2022-07-22T11:52:00;20.00;99.90
33803;DHT22;20110;53.120;5.786;2022-07-22T11:54:29;20.00;99.90
33803;DHT22;20110;53.120;5.786;2022-07-22T11:56:55;20.00;99.90
33803;DHT22;20110;53.120;5.786;2022-07-22T11:59:22;19.70;99.90
33803;DHT22;20110;53.120;5.786;2022-07-22T12:01:48;20.30;99.90
33803;DHT22;20110;53.120;5.786;2022-07-22T12:04:18;20.60;99.90
33803;DHT22;20110;53.120;5.786;2022-07-22T12:06:46;20.90;99.90
33803;DHT22;20110;53.120;5.786;2022-07-22T12:09:19;21.00;99.90
33803;DHT22;20110;53.120;5.786;2022-07-22T12:11:49;21.00;99.90
33803;DHT22;20110;53.120;5.786;2022-07-22T12:14:20;20.80;99.90
33803;DHT22;20110;53.120;5.786;2022-07-22T12:17:16;20.80;99.90
33803;DHT22;20110;53.120;5.786;2022-07-22T12:19:42;20.80;99.90
33803;DHT22;20110;53.120;5.786;2022-07-22T12:22:11;21.00;99.90
33803;DHT22;20110;53.120;5.786;2022-07-22T12:24:45;21.10;99.90
33803;DHT22;20110;53.120;5.786;2022-07-22T12:27:22;21.00;99.90
33803;DHT22;20110;53.120;5.786;2022-07-22T12:29:49;20.40;99.90
33803;DHT22;20110;53.120;5.786;2022-07-22T12:35:02;20.00;99.90
33803;DHT22;20110;53.120;5.786;2022-07-22T12:37:45;19.70;99.90
33803;DHT22;20110;53.120;5.786;2022-07-22T12:40:17;19.20;99.90
33803;DHT22;20110;53.120;5.786;2022-07-22T12:43:00;19.20;99.90
33803;DHT22;20110;53.120;5.786;2022-07-22T12:45:32;19.30;99.90
33803;DHT22;20110;53.120;5.786;2022-07-22T12:53:17;19.50;99.90
33803;DHT22;20110;53.120;5.786;2022-07-22T12:55:48;19.80;99.90
33803;DHT22;20110;53.120;5.786;2022-07-22T12:58:24;19.90;99.90
33803;DHT22;20110;53.120;5.786;2022-07-22T13:00:53;20.00;99.90
33803;DHT22;20110;53.120;5.786;2022-07-22T13:03:21;20.00;99.90
33803;DHT22;20110;53.120;5.786;2022-07-22T13:05:51;20.20;99.90
33803;DHT22;20110;53.120;5.786;2022-07-22T13:08:18;20.00;99.90
33803;DHT22;20110;53.120;5.786;2022-07-22T13:10:44;19.90;99.90
33803;DHT22;20110;53.120;5.786;2022-07-22T13:13:10;19.90;99.90
33803;DHT22;20110;53.120;5.786;2022-07-22T13:15:36;20.00;99.90
33803;DHT22;20110;53.120;5.786;2022-07-22T13:18:03;20.00;99.90
33803;DHT22;20110;53.120;5.786;2022-07-22T13:20:29;20.10;99.90
33803;DHT22;20110;53.120;5.786;2022-07-22T13:22:55;20.00;99.90
33803;DHT22;20110;53.120;5.786;2022-07-22T13:25:21;19.90;99.90
33803;DHT22;20110;53.120;5.786;2022-07-22T13:27:47;19.90;99.90
33803;DHT22;20110;53.120;5.786;2022-07-22T13:30:13;19.90;99.90
33803;DHT22;20110;53.120;5.786;2022-07-22T13:32:39;20.10;99.90
33803;DHT22;20110;53.120;5.786;2022-07-22T13:35:06;20.20;99.90
33803;DHT22;20110;53.120;5.786;2022-07-22T13:37:32;20.30;99.90
33803;DHT22;20110;53.120;5.786;2022-07-22T13:39:59;20.30;99.90
33803;DHT22;20110;53.120;5.786;2022-07-22T13:42:25;19.70;99.90
33803;DHT22;20110;53.120;5.786;2022-07-22T13:44:51;19.80;99.90
33803;DHT22;20110;53.120;5.786;2022-07-22T13:47:17;20.20;99.90
33803;DHT22;20110;53.120;5.786;2022-07-22T13:49:43;20.10;99.90
33803;DHT22;20110;53.120;5.786;2022-07-22T13:52:11;19.90;99.90
33803;DHT22;20110;53.120;5.786;2022-07-22T13:54:36;19.80;99.90
33803;DHT22;20110;53.120;5.786;2022-07-22T13:57:03;19.70;99.90
33803;DHT22;20110;53.120;5.786;2022-07-22T13:59:31;19.70;99.90
33803;DHT22;20110;53.120;5.786;2022-07-22T14:01:57;19.60;99.90
33803;DHT22;20110;53.120;5.786;2022-07-22T14:04:24;19.40;99.90
33803;DHT22;20110;53.120;5.786;2022-07-22T14:06:51;19.10;99.90
33803;DHT22;20110;53.120;5.786;2022-07-22T14:09:18;19.10;99.90
33803;DHT22;20110;53.120;5.786;2022-07-22T14:11:43;19.40;99.90
33803;DHT22;20110;53.120;5.786;2022-07-22T14:14:09;19.40;99.90
33803;DHT22;20110;53.120;5.786;2022-07-22T14:16:36;19.20;99.90
33803;DHT22;20110;53.120;5.786;2022-07-22T14:19:10;19.10;99.90
33803;DHT22;20110;53.120;5.786;2022-07-22T14:21:39;19.00;99.90
33803;DHT22;20110;53.120;5.786;2022-07-22T14:24:08;18.90;99.90
33803;DHT22;20110;53.120;5.786;2022-07-22T14:26:36;19.00;99.90
33803;DHT22;20110;53.120;5.786;2022-07-22T14:29:04;19.20;99.90
33803;DHT22;20110;53.120;5.786;2022-07-22T14:31:32;19.50;99.90
33803;DHT22;20110;53.120;5.786;2022-07-22T14:33:58;19.70;99.90
33803;DHT22;20110;53.120;5.786;2022-07-22T14:36:25;19.90;99.90
33803;DHT22;20110;53.120;5.786;2022-07-22T14:38:51;19.90;99.90
33803;DHT22;20110;53.120;5.786;2022-07-22T14:41:19;20.00;99.90
33803;DHT22;20110;53.120;5.786;2022-07-22T14:43:45;19.80;99.90
33803;DHT22;20110;53.120;5.786;2022-07-22T14:46:11;19.60;99.90
33803;DHT22;20110;53.120;5.786;2022-07-22T14:48:38;19.50;99.90
33803;DHT22;20110;53.120;5.786;2022-07-22T14:51:04;19.50;99.90
33803;DHT22;20110;53.120;5.786;2022-07-22T14:53:31;19.50;99.90
33803;DHT22;20110;53.120;5.786;2022-07-22T14:55:57;19.80;99.90
33803;DHT22;20110;53.120;5.786;2022-07-22T14:58:23;19.70;99.90
33803;DHT22;20110;53.120;5.786;2022-07-22T15:00:49;19.40;99.90
33803;DHT22;20110;53.120;5.786;2022-07-22T15:03:16;19.10;99.90
33803;DHT22;20110;53.120;5.786;2022-07-22T15:05:42;19.40;99.90
33803;DHT22;20110;53.120;5.786;2022-07-22T15:08:08;19.30;99.90
33803;DHT22;20110;53.120;5.786;2022-07-22T15:10:34;19.50;99.90
33803;DHT22;20110;53.120;5.786;2022-07-22T15:13:01;19.20;99.90
33803;DHT22;20110;53.120;5.786;2022-07-22T15:15:28;19.20;99.90
33803;DHT22;20110;53.120;5.786;2022-07-22T15:17:53;19.20;99.90
33803;DHT22;20110;53.120;5.786;2022-07-22T15:20:19;19.20;99.90
33803;DHT22;20110;53.120;5.786;2022-07-22T15:22:45;19.10;99.90
33803;DHT22;20110;53.120;5.786;2022-07-22T15:25:11;19.00;99.90
33803;DHT22;20110;53.120;5.786;2022-07-22T15:27:37;18.90;99.90
33803;DHT22;20110;53.120;5.786;2022-07-22T15:30:05;18.70;99.90
33803;DHT22;20110;53.120;5.786;2022-07-22T15:32:32;18.70;99.90
33803;DHT22;20110;53.120;5.786;2022-07-22T15:34:58;18.60;99.90
33803;DHT22;20110;53.120;5.786;2022-07-22T15:37:24;18.50;99.90
33803;DHT22;20110;53.120;5.786;2022-07-22T15:39:50;18.30;99.90
33803;DHT22;20110;53.120;5.786;2022-07-22T15:42:16;18.40;99.90
33803;DHT22;20110;53.120;5.786;2022-07-22T15:44:42;18.50;99.90
33803;DHT22;20110;53.120;5.786;2022-07-22T15:47:08;18.50;99.90
33803;DHT22;20110;53.120;5.786;2022-07-22T15:49:34;18.40;99.90
33803;DHT22;20110;53.120;5.786;2022-07-22T15:52:00;18.30;99.90
33803;DHT22;20110;53.120;5.786;2022-07-22T15:54:26;18.20;99.90